createdAt,value
2019-04-21T00:01:02.793Z,102526.70
2019-04-21T00:04:12.435Z,102522.74
2019-04-21T00:07:28.081Z,102519.61
2019-04-21T00:10:35.689Z,102519.67
2019-04-21T00:13:32.926Z,102517.83
2019-04-21T00:16:32.126Z,102518.56
2019-04-21T00:19:37.564Z,102516.47
2019-04-21T00:22:52.644Z,102516.41
2019-04-21T00:25:58.133Z,102512.34
2019-04-21T00:29:21.024Z,102506.23
2019-04-21T00:32:10.152Z,102508.80
2019-04-21T00:35:08.575Z,102508.76
2019-04-21T00:38:34.579Z,102504.88
2019-04-21T00:41:36.610Z,102504.04
2019-04-21T00:44:32.047Z,102502.25
2019-04-21T00:47:43.122Z,102505.24
2019-04-21T00:51:14.568Z,102502.53
2019-04-21T00:54:06.910Z,102493.75
2019-04-21T00:57:11.600Z,102494.67
2019-04-21T01:00:15.825Z,102488.00
2019-04-21T01:03:20.142Z,102491.42
2019-04-21T01:06:22.397Z,102488.25
2019-04-21T01:09:30.168Z,102483.05
2019-04-21T01:12:37.404Z,102485.33
2019-04-21T01:15:51.495Z,102486.06
2019-04-21T01:18:51.929Z,102485.28
2019-04-21T01:21:33.800Z,102480.84
2019-04-21T01:24:41.800Z,102479.34
2019-04-21T01:27:58.987Z,102476.27
2019-04-21T01:31:10.979Z,102477.53
2019-04-21T01:34:14.926Z,102477.52
2019-04-21T01:37:25.067Z,102479.17
2019-04-21T01:40:30.729Z,102483.99
2019-04-21T01:43:27.890Z,102479.55
2019-04-21T01:46:37.588Z,102480.81
2019-04-21T01:49:34.920Z,102474.78
2019-04-21T01:52:55.929Z,102474.30
2019-04-21T01:56:01.883Z,102473.36
2019-04-21T01:58:56.212Z,102476.38
2019-04-21T02:02:17.046Z,102479.38
2019-04-21T02:05:28.397Z,102473.92
2019-04-21T02:08:21.939Z,102471.88
2019-04-21T02:11:31.528Z,102465.71
2019-04-21T02:14:40.919Z,102458.71
2019-04-21T02:17:40.746Z,102460.16
2019-04-21T02:20:38.754Z,102455.70
2019-04-21T02:24:00.537Z,102452.59
2019-04-21T02:26:59.462Z,102450.88
2019-04-21T02:30:14.239Z,102451.24
2019-04-21T02:33:27.985Z,102452.11
2019-04-21T02:36:40.273Z,102443.44
2019-04-21T02:39:43.641Z,102435.98
2019-04-21T02:42:51.659Z,102442.19
2019-04-21T02:48:55.349Z,102434.48
2019-04-21T02:55:03.670Z,102416.03
2019-04-21T02:58:16.040Z,102405.58
2019-04-21T03:01:33.529Z,102407.19
2019-04-21T03:04:34.785Z,102393.27
2019-04-21T03:07:44.679Z,102391.37
2019-04-21T03:10:53.253Z,102385.22
2019-04-21T03:13:56.872Z,102378.28
2019-04-21T03:16:55.628Z,102383.86
2019-04-21T03:20:05.446Z,102375.95
2019-04-21T03:26:20.486Z,102382.47
2019-04-21T03:29:19.783Z,102380.63
2019-04-21T03:35:58.344Z,102383.34
2019-04-21T03:38:39.105Z,102379.83
2019-04-21T03:41:48.847Z,102380.13
2019-04-21T03:45:06.978Z,102374.73
2019-04-21T03:47:55.191Z,102374.95
2019-04-21T03:50:56.376Z,102368.39
2019-04-21T03:54:07.889Z,102371.66
2019-04-21T03:57:34.347Z,102371.89
2019-04-21T04:00:36.678Z,102369.32
2019-04-21T04:04:00.713Z,102370.17
2019-04-21T04:07:04.051Z,102371.47
2019-04-21T04:13:05.925Z,102370.28
2019-04-21T04:16:20.190Z,102364.12
2019-04-21T04:19:14.689Z,102369.83
2019-04-21T04:22:30.963Z,102368.67
2019-04-21T04:25:28.034Z,102368.00
2019-04-21T04:31:47.416Z,102367.78
2019-04-21T04:34:57.299Z,102369.76
2019-04-21T04:37:57.463Z,102363.45
2019-04-21T04:41:14.571Z,102366.16
2019-04-21T04:44:29.971Z,102368.44
2019-04-21T04:47:20.526Z,102368.16
2019-04-21T04:50:33.158Z,102363.80
2019-04-21T04:53:45.986Z,102367.66
2019-04-21T04:59:42.579Z,102355.47
2019-04-21T05:02:44.422Z,102365.03
2019-04-21T05:12:29.564Z,102356.10
2019-04-21T05:15:32.465Z,102350.84
2019-04-21T05:18:52.797Z,102346.42
2019-04-21T05:22:04.885Z,102344.84
2019-04-21T05:24:44.241Z,102341.52
2019-04-21T05:27:47.254Z,102349.97
2019-04-21T05:31:12.546Z,102347.34
2019-04-21T05:34:17.160Z,102345.80
2019-04-21T05:37:35.368Z,102345.05
2019-04-21T05:40:35.439Z,102345.17
2019-04-21T05:43:48.427Z,102344.01
2019-04-21T05:47:11.501Z,102343.66
2019-04-21T05:50:02.902Z,102338.89
2019-04-21T05:53:19.282Z,102340.26
2019-04-21T05:56:20.692Z,102338.53
2019-04-21T05:59:22.103Z,102337.25
2019-04-21T06:02:42.077Z,102336.88
2019-04-21T06:08:42.209Z,102323.34
2019-04-21T06:11:42.451Z,102326.88
2019-04-21T06:14:55.862Z,102326.84
2019-04-21T06:18:02.656Z,102331.64
2019-04-21T06:21:05.553Z,102330.29
2019-04-21T06:24:02.504Z,102326.25
2019-04-21T06:27:19.276Z,102312.89
2019-04-21T06:30:22.058Z,102318.05
2019-04-21T06:33:27.494Z,102317.44
2019-04-21T06:36:42.542Z,102313.30
2019-04-21T06:40:05.459Z,102310.84
2019-04-21T06:43:07.475Z,102307.42
2019-04-21T06:46:02.205Z,102308.34
2019-04-21T06:49:03.069Z,102302.45
2019-04-21T06:52:23.429Z,102302.06
2019-04-21T06:55:14.341Z,102297.94
2019-04-21T06:58:18.395Z,102301.73
2019-04-21T07:01:39.168Z,102304.52
2019-04-21T07:04:36.468Z,102300.70
2019-04-21T07:07:51.778Z,102294.61
2019-04-21T07:10:44.421Z,102296.38
2019-04-21T07:14:01.705Z,102290.05
2019-04-21T07:20:17.306Z,102281.80
2019-04-21T07:23:09.304Z,102283.95
2019-04-21T07:26:11.752Z,102284.41
2019-04-21T07:32:51.543Z,102279.47
2019-04-21T07:35:57.451Z,102280.95
2019-04-21T07:39:08.786Z,102280.31
2019-04-21T07:42:35.882Z,102273.90
2019-04-21T07:45:43.167Z,102271.66
2019-04-21T07:50:00.909Z,102270.81
2019-04-21T07:57:31.807Z,102261.88
2019-04-21T08:04:52.779Z,102257.06
2019-04-21T08:10:56.758Z,102258.23
2019-04-21T08:14:23.954Z,102248.78
2019-04-21T08:17:09.644Z,102249.19
2019-04-21T08:20:14.286Z,102244.36
2019-04-21T08:23:29.690Z,102238.62
2019-04-21T08:26:34.151Z,102248.95
2019-04-21T08:29:39.206Z,102239.79
2019-04-21T08:36:04.344Z,102233.76
2019-04-21T08:38:55.507Z,102230.28
2019-04-21T08:41:58.585Z,102234.34
2019-04-21T08:45:03.968Z,102229.86
2019-04-21T08:48:12.155Z,102225.75
2019-04-21T08:54:23.490Z,102225.95
2019-04-21T08:57:41.684Z,102225.91
2019-04-21T09:00:46.878Z,102221.34
2019-04-21T09:04:11.682Z,102216.22
2019-04-21T09:07:14.648Z,102216.72
2019-04-21T09:10:16.966Z,102216.89
2019-04-21T09:13:24.676Z,102214.36
2019-04-21T09:16:27.848Z,102209.36
2019-04-21T09:19:45.637Z,102204.34
2019-04-21T09:22:41.209Z,102205.53
2019-04-21T09:25:46.823Z,102199.13
2019-04-21T09:28:47.013Z,102196.48
2019-04-21T09:31:41.095Z,102191.66
2019-04-21T09:34:45.254Z,102195.98
2019-04-21T09:37:55.281Z,102182.92
2019-04-21T09:40:56.074Z,102175.34
2019-04-21T09:44:01.356Z,102182.14
2019-04-21T09:47:07.982Z,102160.94
2019-04-21T09:50:11.985Z,102159.56
2019-04-21T09:53:28.731Z,102153.97
2019-04-21T09:56:31.251Z,102154.47
2019-04-21T09:59:33.653Z,102146.78
2019-04-21T10:02:42.768Z,102153.38
2019-04-21T10:05:39.908Z,102141.20
2019-04-21T10:08:44.621Z,102137.07
2019-04-21T10:11:50.540Z,102132.07
2019-04-21T10:14:55.321Z,102137.48
2019-04-21T10:18:02.949Z,102133.12
2019-04-21T10:21:07.663Z,102125.91
2019-04-21T10:24:12.499Z,102109.56
2019-04-21T10:27:17.280Z,102108.69
2019-04-21T10:30:22.510Z,102101.61
2019-04-21T10:33:26.357Z,102099.20
2019-04-21T10:36:30.996Z,102096.09
2019-04-21T10:39:35.716Z,102094.41
2019-04-21T10:42:40.411Z,102088.42
2019-04-21T10:45:44.603Z,102079.75
2019-04-21T10:48:48.641Z,102073.75
2019-04-21T10:51:53.022Z,102075.27
2019-04-21T10:55:20.702Z,102076.10
2019-04-21T10:58:14.206Z,102072.70
2019-04-21T11:01:21.039Z,102065.28
2019-04-21T11:04:32.771Z,102064.31
2019-04-21T11:08:01.090Z,102061.48
2019-04-21T11:10:54.545Z,102052.22
2019-04-21T11:13:58.851Z,102051.61
2019-04-21T11:17:04.011Z,102045.91
2019-04-21T11:20:08.903Z,102035.67
2019-04-21T11:23:12.725Z,102042.63
2019-04-21T11:26:16.434Z,102031.00
2019-04-21T11:29:21.212Z,102029.10
2019-04-21T11:32:25.271Z,102026.05
2019-04-21T11:35:30.810Z,102023.03
2019-04-21T11:39:02.375Z,102019.41
2019-04-21T11:41:54.236Z,102021.56
2019-04-21T11:44:58.186Z,102006.95
2019-04-21T11:48:12.424Z,102006.94
2019-04-21T11:51:17.165Z,102002.07
2019-04-21T11:54:20.908Z,101996.63
2019-04-21T11:57:28.671Z,101997.01
2019-04-21T12:00:31.631Z,101996.24
2019-04-21T12:03:35.814Z,101990.70
2019-04-21T12:06:45.423Z,101986.50
2019-04-21T12:09:45.740Z,101982.44
2019-04-21T12:12:50.876Z,101978.51
2019-04-21T12:15:54.913Z,101976.83
2019-04-21T12:18:58.924Z,101970.42
2019-04-21T12:22:10.973Z,101970.27
2019-04-21T12:25:11.784Z,101968.42
2019-04-21T12:28:15.970Z,101952.53
2019-04-21T12:31:31.752Z,101953.02
2019-04-21T12:34:36.300Z,101946.74
2019-04-21T12:37:40.720Z,101943.73
2019-04-21T12:40:44.755Z,101942.95
2019-04-21T12:43:49.078Z,101934.56
2019-04-21T12:46:53.949Z,101932.27
2019-04-21T12:49:59.104Z,101916.73
2019-04-21T12:53:03.320Z,101922.94
2019-04-21T12:56:07.492Z,101911.47
2019-04-21T12:59:12.118Z,101902.38
2019-04-21T13:02:16.049Z,101893.79
2019-04-21T13:05:20.001Z,101901.46
2019-04-21T13:08:24.983Z,101888.34
2019-04-21T13:11:29.002Z,101881.30
2019-04-21T13:14:33.730Z,101875.77
2019-04-21T13:17:37.564Z,101870.87
2019-04-21T13:20:42.249Z,101859.84
2019-04-21T13:23:47.200Z,101853.64
2019-04-21T13:26:57.738Z,101850.64
2019-04-21T13:29:57.108Z,101846.42
2019-04-21T13:33:00.983Z,101846.59
2019-04-21T13:36:05.126Z,101841.02
2019-04-21T13:39:55.269Z,101833.58
2019-04-21T13:42:43.895Z,101832.09
2019-04-21T13:45:41.792Z,101822.78
2019-04-21T13:48:46.550Z,101827.99
2019-04-21T13:51:50.368Z,101823.63
2019-04-21T13:54:54.052Z,101820.13
2019-04-21T13:57:58.828Z,101813.94
2019-04-21T14:01:03.514Z,101810.29
2019-04-21T14:04:07.527Z,101802.14
2019-04-21T14:07:12.218Z,101793.52
2019-04-21T14:10:17.962Z,101790.70
2019-04-21T14:13:22.635Z,101795.72
2019-04-21T14:16:26.660Z,101790.97
2019-04-21T14:19:31.105Z,101786.01
2019-04-21T14:22:35.991Z,101776.16
2019-04-21T14:25:39.732Z,101777.22
2019-04-21T14:28:43.522Z,101770.28
2019-04-21T14:31:48.448Z,101770.97
2019-04-21T14:34:53.988Z,101775.55
2019-04-21T14:37:58.512Z,101764.36
2019-04-21T14:41:02.281Z,101759.27
2019-04-21T14:44:06.927Z,101759.41
2019-04-21T14:47:25.116Z,101754.52
2019-04-21T14:50:48.365Z,101755.22
2019-04-21T14:54:08.022Z,101748.95
2019-04-21T14:57:13.489Z,101751.39
2019-04-21T15:00:19.028Z,101753.36
2019-04-21T15:03:23.606Z,101748.06
2019-04-21T15:06:27.985Z,101750.06
2019-04-21T15:09:35.521Z,101747.44
2019-04-21T15:12:37.939Z,101743.71
2019-04-21T15:15:43.710Z,101734.60
2019-04-21T15:18:48.608Z,101735.72
2019-04-21T15:21:52.761Z,101732.74
2019-04-21T15:24:58.346Z,101734.85
2019-04-21T15:28:03.172Z,101729.77
2019-04-21T15:31:08.250Z,101718.52
2019-04-21T15:34:13.216Z,101713.41
2019-04-21T15:37:24.016Z,101715.03
2019-04-21T15:40:36.633Z,101713.87
2019-04-21T15:43:34.158Z,101705.13
2019-04-21T15:46:39.933Z,101697.16
2019-04-21T15:50:02.920Z,101697.87
2019-04-21T15:53:05.614Z,101693.28
2019-04-21T15:56:13.358Z,101694.78
2019-04-21T15:59:40.165Z,101694.83
2019-04-21T16:02:46.554Z,101687.28
2019-04-21T16:05:51.363Z,101685.59
2019-04-21T16:08:59.253Z,101684.08
2019-04-21T16:12:01.892Z,101677.58
2019-04-21T16:15:08.370Z,101668.28
2019-04-21T16:18:12.232Z,101671.95
2019-04-21T16:21:17.936Z,101670.84
2019-04-21T16:24:23.324Z,101669.34
2019-04-21T16:27:27.782Z,101666.48
2019-04-21T16:30:31.855Z,101666.23
2019-04-21T16:33:36.814Z,101669.42
2019-04-21T16:36:41.609Z,101660.86
2019-04-21T16:39:45.675Z,101667.48
2019-04-21T16:42:50.113Z,101661.23
2019-04-21T16:45:55.000Z,101652.08
2019-04-21T16:48:59.993Z,101651.84
2019-04-21T16:52:12.136Z,101648.77
2019-04-21T16:55:23.219Z,101651.20
2019-04-21T16:58:32.732Z,101639.72
2019-04-21T17:01:38.389Z,101643.59
2019-04-21T17:04:42.566Z,101638.69
2019-04-21T17:07:47.120Z,101638.58
2019-04-21T17:11:05.627Z,101636.38
2019-04-21T17:13:57.014Z,101636.71
2019-04-21T17:17:26.791Z,101636.71
2019-04-21T17:20:19.363Z,101634.42
2019-04-21T17:23:15.729Z,101626.05
2019-04-21T17:26:21.314Z,101628.81
2019-04-21T17:29:26.548Z,101632.38
2019-04-21T17:32:37.213Z,101634.72
2019-04-21T17:35:38.692Z,101635.38
2019-04-21T17:38:43.828Z,101637.22
2019-04-21T17:42:03.248Z,101641.45
2019-04-21T17:44:55.324Z,101641.81
2019-04-21T17:48:04.671Z,101642.25
2019-04-21T17:51:23.412Z,101645.69
2019-04-21T17:54:37.674Z,101638.98
2019-04-21T17:58:01.305Z,101643.91
2019-04-21T18:01:19.307Z,101656.70
2019-04-21T18:07:26.089Z,101647.98
2019-04-21T18:10:27.750Z,101651.95
2019-04-21T18:13:19.548Z,101656.16
2019-04-21T18:16:30.093Z,101655.47
2019-04-21T18:19:28.675Z,101660.97
2019-04-21T18:22:55.401Z,101654.30
2019-04-21T18:26:06.094Z,101661.28
2019-04-21T18:29:05.597Z,101658.11
2019-04-21T18:32:10.484Z,101658.97
2019-04-21T18:35:20.854Z,101663.62
2019-04-21T18:38:54.835Z,101662.53
2019-04-21T18:42:06.422Z,101665.20
2019-04-21T18:45:41.489Z,101665.38
2019-04-21T18:48:45.850Z,101669.34
2019-04-21T18:52:01.233Z,101674.73
2019-04-21T18:55:12.956Z,101671.23
2019-04-21T18:58:05.223Z,101666.75
2019-04-21T19:01:14.888Z,101675.72
2019-04-21T19:04:20.475Z,101682.79
2019-04-21T19:07:42.266Z,101680.73
2019-04-21T19:10:53.626Z,101683.56
2019-04-21T19:14:20.906Z,101682.91
2019-04-21T19:20:25.655Z,101683.80
2019-04-21T19:23:33.817Z,101678.00
2019-04-21T19:26:37.743Z,101680.28
2019-04-21T19:29:40.659Z,101682.42
2019-04-21T19:32:39.396Z,101683.17
2019-04-21T19:35:29.928Z,101682.72
2019-04-21T19:38:46.802Z,101675.88
2019-04-21T19:41:51.974Z,101674.07
2019-04-21T19:45:03.675Z,101680.10
2019-04-21T19:48:09.422Z,101674.33
2019-04-21T19:51:15.086Z,101674.16
2019-04-21T19:54:15.553Z,101666.41
2019-04-21T19:57:11.318Z,101670.72
2019-04-21T20:00:17.387Z,101671.59
2019-04-21T20:03:21.149Z,101675.06
2019-04-21T20:06:43.375Z,101674.06
2019-04-21T20:09:44.883Z,101673.86
2019-04-21T20:12:56.895Z,101675.59
2019-04-21T20:16:03.764Z,101670.32
2019-04-21T20:18:55.469Z,101672.54
2019-04-21T20:21:54.609Z,101673.45
2019-04-21T20:25:04.715Z,101667.03
2019-04-21T20:28:14.691Z,101671.39
2019-04-21T20:31:29.235Z,101669.45
2019-04-21T20:34:38.612Z,101668.81
2019-04-21T20:37:37.591Z,101662.67
2019-04-21T20:40:39.960Z,101663.20
2019-04-21T20:43:57.780Z,101658.80
2019-04-21T20:46:55.487Z,101657.77
2019-04-21T20:49:59.786Z,101652.56
2019-04-21T20:53:11.355Z,101653.30
2019-04-21T20:56:08.620Z,101651.66
2019-04-21T20:59:15.046Z,101652.83
2019-04-21T21:02:26.526Z,101650.16
2019-04-21T21:05:27.307Z,101653.33
2019-04-21T21:08:40.328Z,101650.63
2019-04-21T21:11:46.717Z,101651.45
2019-04-21T21:14:42.204Z,101651.66
2019-04-21T21:18:04.316Z,101650.06
2019-04-21T21:20:59.134Z,101643.22
2019-04-21T21:24:05.416Z,101648.66
2019-04-21T21:27:10.114Z,101649.31
2019-04-21T21:30:14.352Z,101648.98
2019-04-21T21:33:22.530Z,101653.80
2019-04-21T21:36:27.380Z,101653.98
2019-04-21T21:39:40.466Z,101656.77
2019-04-21T21:42:26.393Z,101645.96
2019-04-21T21:45:30.378Z,101646.91
2019-04-21T21:48:45.106Z,101650.54
2019-04-21T21:51:49.969Z,101648.78
2019-04-21T21:54:43.572Z,101646.55
2019-04-21T21:57:51.966Z,101647.33
2019-04-21T22:00:58.991Z,101646.13
2019-04-21T22:04:09.191Z,101649.55
2019-04-21T22:07:11.461Z,101643.25
2019-04-21T22:10:12.514Z,101645.63
2019-04-21T22:13:20.000Z,101642.82
2019-04-21T22:16:24.476Z,101635.70
2019-04-21T22:19:52.430Z,101639.97
2019-04-21T22:22:44.733Z,101635.97
2019-04-21T22:25:41.776Z,101630.30
2019-04-21T22:28:45.589Z,101636.37
2019-04-21T22:31:53.968Z,101648.10
2019-04-21T22:35:01.620Z,101631.46
2019-04-21T22:38:14.899Z,101626.69
2019-04-21T22:41:18.925Z,101626.59
2019-04-21T22:44:16.965Z,101635.20
2019-04-21T22:47:26.938Z,101631.57
2019-04-21T22:50:32.795Z,101633.03
2019-04-21T22:53:43.654Z,101629.51
2019-04-21T22:56:53.912Z,101623.74
2019-04-21T22:59:53.863Z,101624.68
2019-04-21T23:03:06.840Z,101627.96
2019-04-21T23:06:07.573Z,101623.93
2019-04-21T23:09:08.815Z,101626.20
2019-04-21T23:12:20.477Z,101619.21
2019-04-21T23:15:21.281Z,101630.30
2019-04-21T23:18:40.097Z,101624.77
2019-04-21T23:21:49.734Z,101624.44
2019-04-21T23:24:58.851Z,101626.54
2019-04-21T23:27:57.756Z,101626.55
2019-04-21T23:31:06.318Z,101633.20
2019-04-21T23:33:52.589Z,101634.52
2019-04-21T23:37:05.775Z,101629.03
2019-04-21T23:40:09.355Z,101638.56
2019-04-21T23:43:13.362Z,101634.25
2019-04-21T23:46:20.354Z,101628.92
2019-04-21T23:49:33.986Z,101625.16
2019-04-21T23:52:25.632Z,101624.23
2019-04-21T23:55:29.536Z,101611.60
2019-04-21T23:58:36.294Z,101614.38
